Time;durP1;ratioP1;P1;durP2;ratioP2;P2;SDS_P1;SDS_P2;PMS_P1;PMS_P2;Temp;Humidity;BMP_temperature;BMP_pressure;BME280_temperature;BME280_humidity;BME280_pressure;Samples;Min_cycle;Max_cycle;Signal;HPM_P1;HPM_P2
2022/04/06 09:26:20;;;;;;;52.92;36.78;;;;;;;;;;6171453;23;20025;-96
2022/04/06 09:28:48;;;;;;;52.70;36.95;;;;;;;;;;6192024;23;20016;-96
2022/04/06 09:31:17;;;;;;;51.65;37.67;;;;;;;;;;6191786;23;20004;-95
2022/04/06 09:33:54;;;;;;;;;;;;;;;;;;6191837;23;20004;-94
2022/04/06 09:36:20;;;;;;;55.70;37.63;;;;;;;;;;6191920;23;19939;-93
2022/04/06 09:38:51;;;;;;;51.47;36.60;;;;;;;;;;6192204;23;20290;-93
2022/04/06 09:41:19;;;;;;;52.08;38.10;;;;;;;;;;6190930;23;20088;-92
2022/04/06 09:43:48;;;;;;;53.28;36.42;;;;;;;;;;6190996;23;20462;-93
2022/04/06 09:49:13;;;;;;;52.28;37.95;;;;;;;;;;6218958;23;20156;-94
2022/04/06 09:51:41;;;;;;;55.28;40.03;;;;;;;;;;6192428;23;20008;-94
2022/04/06 09:54:08;;;;;;;53.85;38.63;;;;;;;;;;6192415;23;20032;-94
2022/04/06 09:56:35;;;;;;;53.67;39.17;;;;;;;;;;6192737;23;20087;-94
2022/04/06 09:59:03;;;;;;;51.40;38.45;;;;;;;;;;6219282;23;19996;-94
2022/04/06 10:01:33;;;;;;;56.58;40.88;;;;;;;;;;6191837;23;20023;-91
2022/04/06 10:04:05;;;;;;;55.72;38.28;;;;;;;;;;6191839;23;20009;-92
2022/04/06 10:06:35;;;;;;;54.22;38.60;;;;;;;;;;6191645;23;20009;-91
2022/04/06 10:09:04;;;;;;;56.58;39.55;;;;;;;;;;6191035;23;20086;-90
2022/04/06 10:11:30;;;;;;;54.15;38.65;;;;;;;;;;6191023;23;20005;-92
2022/04/06 10:13:56;;;;;;;56.90;39.30;;;;;;;;;;6190790;23;20015;-92
2022/04/06 10:16:23;;;;;;;60.63;41.28;;;;;;;;;;6190717;23;20004;-94
2022/04/06 10:18:51;;;;;;;53.65;38.38;;;;;;;;;;6190534;23;20046;-91
2022/04/06 10:21:53;;;;;;;56.15;39.85;;;;;;;;;;6190656;23;20091;-93
2022/04/06 10:24:22;;;;;;;50.60;36.95;;;;;;;;;;6190449;23;20313;-94
2022/04/06 10:26:59;;;;;;;50.80;36.03;;;;;;;;;;6190607;23;20016;-90
2022/04/06 10:29:25;;;;;;;57.25;37.70;;;;;;;;;;6189742;23;20009;-91
2022/04/06 10:31:50;;;;;;;46.78;36.50;;;;;;;;;;6190074;23;20498;-90
2022/04/06 10:34:33;;;;;;;48.05;35.17;;;;;;;;;;6190048;23;20332;-87
2022/04/06 10:37:07;;;;;;;45.33;33.45;;;;;;;;;;6216794;23;20091;-91
2022/04/06 10:40:03;;;;;;;47.78;35.25;;;;;;;;;;6190274;23;20005;-91
2022/04/06 10:42:37;;;;;;;45.78;33.53;;;;;;;;;;6189958;23;20005;-90
2022/04/06 10:45:05;;;;;;;54.40;34.85;;;;;;;;;;6190460;23;20015;-89
2022/04/06 10:47:32;;;;;;;48.22;36.90;;;;;;;;;;6190458;23;20107;-91
2022/04/06 10:50:16;;;;;;;45.70;33.30;;;;;;;;;;6190562;23;20039;-91
2022/04/06 10:52:45;;;;;;;41.78;30.98;;;;;;;;;;6190501;23;20107;-91
2022/04/06 10:55:23;;;;;;;38.15;27.45;;;;;;;;;;6190213;23;20000;-90
2022/04/06 10:57:57;;;;;;;38.28;28.17;;;;;;;;;;6191087;23;20031;-91
2022/04/06 11:00:24;;;;;;;41.33;29.20;;;;;;;;;;6199814;23;20000;-89
2022/04/06 11:02:50;;;;;;;42.17;29.60;;;;;;;;;;6202303;23;20005;-92
2022/04/06 11:05:53;;;;;;;43.83;30.98;;;;;;;;;;6204190;23;20000;-92
2022/04/06 11:11:39;;;;;;;43.42;31.55;;;;;;;;;;6229780;23;20055;-92
2022/04/06 11:14:05;;;;;;;44.13;32.28;;;;;;;;;;6204130;23;20032;-91
2022/04/06 11:16:45;;;;;;;40.00;30.73;;;;;;;;;;6203727;23;20036;-90
2022/04/06 11:19:12;;;;;;;47.78;33.03;;;;;;;;;;6200046;23;20005;-91
2022/04/06 11:21:58;;;;;;;42.15;31.52;;;;;;;;;;6200996;23;20004;-91
2022/04/06 11:24:27;;;;;;;44.40;32.55;;;;;;;;;;6191928;23;20543;-91
2022/04/06 11:26:53;;;;;;;46.50;35.00;;;;;;;;;;6191306;23;20020;-91
2022/04/06 11:29:19;;;;;;;44.33;32.58;;;;;;;;;;6191050;23;20007;-90
2022/04/06 11:31:56;;;;;;;42.85;32.72;;;;;;;;;;6217521;23;20001;-89
2022/04/06 11:34:39;;;;;;;51.60;35.33;;;;;;;;;;6191545;23;20024;-90
2022/04/06 11:37:06;;;;;;;45.60;32.45;;;;;;;;;;6190973;23;20001;-90
2022/04/06 11:39:32;;;;;;;52.67;36.50;;;;;;;;;;6191043;23;20492;-90
2022/04/06 11:42:00;;;;;;;42.88;33.53;;;;;;;;;;6190836;23;20002;-92
2022/04/06 11:44:26;;;;;;;46.15;34.22;;;;;;;;;;6191158;23;20008;-90
2022/04/06 11:46:52;;;;;;;47.58;35.05;;;;;;;;;;6190810;23;20032;-92
2022/04/06 17:09:49;;;;;;;38.78;28.48;;;;;;;;;;6207764;23;20055;-91
2022/04/06 17:12:15;;;;;;;36.45;25.35;;;;;;;;;;6190310;23;20040;-87
2022/04/06 17:14:43;;;;;;;51.28;37.83;;;;;;;;;;6190124;23;20024;-88
2022/04/06 17:17:10;;;;;;;40.90;30.05;;;;;;;;;;6216663;23;20031;-87
2022/04/06 17:19:36;;;;;;;39.63;29.27;;;;;;;;;;6216648;23;20371;-89
2022/04/06 17:22:01;;;;;;;36.67;27.67;;;;;;;;;;6216891;23;20000;-90
2022/04/06 17:24:27;;;;;;;41.45;30.40;;;;;;;;;;6216947;23;20483;-88
2022/04/06 17:26:56;;;;;;;39.45;28.77;;;;;;;;;;6190085;23;20004;-88
2022/04/06 17:29:21;;;;;;;38.45;26.88;;;;;;;;;;6190232;23;20009;-89
2022/04/06 17:31:47;;;;;;;34.83;25.45;;;;;;;;;;6190364;23;20336;-89
2022/04/06 17:34:12;;;;;;;41.38;29.98;;;;;;;;;;6192592;23;20428;-92
2022/04/06 17:36:38;;;;;;;33.95;26.08;;;;;;;;;;6190810;23;20095;-89
2022/04/06 17:39:03;;;;;;;35.30;25.77;;;;;;;;;;6190767;23;20015;-87
2022/04/06 17:41:29;;;;;;;45.05;33.25;;;;;;;;;;6216911;23;20035;-88
2022/04/06 17:43:55;;;;;;;51.80;37.08;;;;;;;;;;6189796;23;20066;-86
2022/04/06 17:46:21;;;;;;;54.97;37.40;;;;;;;;;;6216306;23;20328;-87
2022/04/06 17:48:46;;;;;;;42.10;30.33;;;;;;;;;;6189269;23;20004;-87
2022/04/06 17:51:12;;;;;;;43.85;31.92;;;;;;;;;;6190945;23;20009;-86
2022/04/06 17:53:38;;;;;;;40.83;29.77;;;;;;;;;;6195277;23;20309;-85
2022/04/06 17:56:04;;;;;;;41.53;30.92;;;;;;;;;;6194516;23;20000;-86
2022/04/06 17:58:30;;;;;;;40.95;29.52;;;;;;;;;;6224077;23;20005;-88
2022/04/06 18:00:56;;;;;;;48.20;32.58;;;;;;;;;;6224243;23;20032;-85
2022/04/06 18:03:22;;;;;;;48.05;34.10;;;;;;;;;;6225244;23;20371;-86
2022/04/06 18:05:48;;;;;;;43.90;31.55;;;;;;;;;;6192950;23;20084;-86
2022/04/06 18:08:14;;;;;;;44.08;30.08;;;;;;;;;;6216518;23;20065;-87
2022/04/06 18:13:43;;;;;;;50.08;36.85;;;;;;;;;;6161190;23;20027;-87
2022/04/06 18:16:14;;;;;;;48.45;34.72;;;;;;;;;;6189757;23;20043;-88
2022/04/06 18:18:42;;;;;;;50.03;35.20;;;;;;;;;;6189920;23;19997;-87
2022/04/06 18:21:08;;;;;;;47.78;34.00;;;;;;;;;;6216352;23;20005;-88
2022/04/06 18:23:35;;;;;;;47.85;33.00;;;;;;;;;;6216139;23;20007;-85
2022/04/06 18:26:07;;;;;;;45.42;32.65;;;;;;;;;;6216222;23;20005;-86
2022/04/06 18:28:37;;;;;;;41.80;30.42;;;;;;;;;;6216332;23;20012;-88
2022/04/06 18:31:06;;;;;;;50.17;35.05;;;;;;;;;;6216231;23;20005;-86
2022/04/06 18:33:33;;;;;;;48.60;36.90;;;;;;;;;;6216473;23;20012;-85
2022/04/06 18:36:00;;;;;;;49.47;36.78;;;;;;;;;;6216180;23;20016;-86
2022/04/06 18:38:26;;;;;;;48.00;34.15;;;;;;;;;;6216260;23;20005;-86
2022/04/06 18:40:52;;;;;;;41.90;30.35;;;;;;;;;;6215983;23;20005;-86
2022/04/06 18:43:23;;;;;;;46.70;33.97;;;;;;;;;;6189655;23;20432;-86
2022/04/06 18:45:49;;;;;;;49.72;33.67;;;;;;;;;;6216425;23;20005;-87
2022/04/06 18:48:15;;;;;;;55.92;40.70;;;;;;;;;;6216341;23;20323;-86
2022/04/06 18:50:41;;;;;;;56.00;40.42;;;;;;;;;;6189494;23;20001;-85
2022/04/06 18:53:07;;;;;;;60.33;41.22;;;;;;;;;;6216132;23;20075;-88
2022/04/06 18:55:32;;;;;;;62.88;43.55;;;;;;;;;;6216005;23;20028;-85
2022/04/06 18:57:58;;;;;;;46.28;33.58;;;;;;;;;;6215851;23;20491;-88
2022/04/06 19:00:24;;;;;;;54.15;38.92;;;;;;;;;;6218530;23;20005;-84
2022/04/06 19:02:50;;;;;;;46.78;32.67;;;;;;;;;;6219500;23;20085;-86
2022/04/06 19:05:16;;;;;;;57.17;41.00;;;;;;;;;;6219591;23;20372;-88
2022/04/06 19:07:42;;;;;;;50.67;37.72;;;;;;;;;;6219236;23;20032;-87
2022/04/06 19:10:09;;;;;;;53.63;39.08;;;;;;;;;;6219120;23;20479;-86
2022/04/06 19:12:37;;;;;;;44.08;33.28;;;;;;;;;;6219302;23;20424;-88
2022/04/06 19:15:04;;;;;;;51.42;36.25;;;;;;;;;;6192694;23;20004;-83
2022/04/06 19:17:31;;;;;;;51.45;38.42;;;;;;;;;;6219126;23;20448;-84
2022/04/06 19:19:57;;;;;;;53.38;39.15;;;;;;;;;;6219482;23;20004;-88
2022/04/06 19:22:24;;;;;;;52.50;37.10;;;;;;;;;;6219560;23;20297;-87
2022/04/06 19:24:51;;;;;;;51.13;35.17;;;;;;;;;;6192796;23;20009;-88
2022/04/06 19:27:17;;;;;;;49.15;36.00;;;;;;;;;;6193030;23;20339;-89
2022/04/06 19:29:43;;;;;;;49.10;35.70;;;;;;;;;;6192961;23;20055;-88
2022/04/06 19:32:09;;;;;;;45.75;31.83;;;;;;;;;;6219586;23;20004;-90
2022/04/06 19:34:34;;;;;;;44.67;29.35;;;;;;;;;;6192903;23;20008;-89
2022/04/06 19:37:03;;;;;;;39.85;29.48;;;;;;;;;;6192527;23;20013;-90
2022/04/06 19:39:31;;;;;;;38.63;27.80;;;;;;;;;;6219261;23;20431;-87
2022/04/06 19:41:57;;;;;;;39.45;26.10;;;;;;;;;;6219743;23;20071;-85
2022/04/06 19:44:23;;;;;;;38.03;26.80;;;;;;;;;;6192512;23;20088;-90
2022/04/06 19:46:49;;;;;;;39.40;27.48;;;;;;;;;;6192268;23;20032;-87
2022/04/06 19:49:14;;;;;;;35.33;25.20;;;;;;;;;;6217674;23;20012;-86
2022/04/06 19:51:41;;;;;;;37.70;27.25;;;;;;;;;;6219215;23;20001;-86
2022/04/06 19:54:07;;;;;;;32.63;24.20;;;;;;;;;;6219192;23;20008;-87
2022/04/06 19:56:33;;;;;;;38.50;26.38;;;;;;;;;;6219170;23;20001;-87
2022/04/06 19:58:59;;;;;;;34.08;23.73;;;;;;;;;;6219536;23;20356;-86
2022/04/06 20:01:26;;;;;;;32.15;23.35;;;;;;;;;;6190909;23;20011;-85
2022/04/06 20:03:51;;;;;;;35.55;25.42;;;;;;;;;;6218999;23;20001;-86
2022/04/06 20:06:17;;;;;;;30.20;21.42;;;;;;;;;;6218814;23;20381;-86
2022/04/06 20:08:42;;;;;;;33.00;22.05;;;;;;;;;;6218729;23;20036;-84
2022/04/06 20:11:08;;;;;;;28.20;21.50;;;;;;;;;;6186064;23;20112;-85
2022/04/06 20:13:33;;;;;;;32.53;22.23;;;;;;;;;;6187424;23;19997;-86
2022/04/06 20:16:02;;;;;;;29.15;21.90;;;;;;;;;;6187461;23;20000;-84
2022/04/06 20:18:30;;;;;;;30.25;21.45;;;;;;;;;;6185646;23;20005;-84
2022/04/06 20:20:59;;;;;;;26.08;19.52;;;;;;;;;;6185827;23;20005;-85
2022/04/06 20:23:30;;;;;;;23.48;18.63;;;;;;;;;;6185805;23;20005;-86
2022/04/06 20:25:56;;;;;;;25.35;18.42;;;;;;;;;;6185673;23;20009;-86
2022/04/06 20:28:22;;;;;;;28.23;19.35;;;;;;;;;;6187083;23;19997;-87
2022/04/06 20:30:49;;;;;;;28.50;19.17;;;;;;;;;;6187448;23;20005;-86
2022/04/06 20:33:15;;;;;;;25.80;17.77;;;;;;;;;;6185617;23;20422;-86
2022/04/06 20:35:41;;;;;;;23.70;16.70;;;;;;;;;;6187095;23;20021;-85
2022/04/06 20:38:06;;;;;;;22.70;17.30;;;;;;;;;;6186907;23;20490;-85
2022/04/06 20:40:32;;;;;;;21.73;16.02;;;;;;;;;;6187497;23;20001;-84
2022/04/06 20:42:58;;;;;;;22.35;16.90;;;;;;;;;;6187068;23;20425;-84
2022/04/06 20:45:24;;;;;;;21.27;15.38;;;;;;;;;;6187497;23;20080;-84
2022/04/06 20:47:49;;;;;;;21.00;14.60;;;;;;;;;;6186594;23;20087;-88
2022/04/06 20:50:15;;;;;;;20.83;15.13;;;;;;;;;;6186972;23;20324;-86
2022/04/06 20:52:40;;;;;;;21.80;17.00;;;;;;;;;;6186918;23;20080;-86
2022/04/06 20:55:07;;;;;;;19.95;15.20;;;;;;;;;;6187105;23;20305;-89
2022/04/06 20:57:33;;;;;;;18.98;14.32;;;;;;;;;;6185373;23;20013;-86
2022/04/06 20:59:58;;;;;;;21.02;15.05;;;;;;;;;;6187159;23;20055;-88
2022/04/06 21:02:24;;;;;;;18.83;14.63;;;;;;;;;;6186928;23;20055;-85
2022/04/06 21:04:49;;;;;;;19.77;14.45;;;;;;;;;;6185220;23;20331;-84
2022/04/06 21:07:15;;;;;;;19.42;14.15;;;;;;;;;;6186741;23;20068;-87
2022/04/06 21:09:40;;;;;;;16.60;13.07;;;;;;;;;;6189012;23;20007;-88
2022/04/06 21:12:06;;;;;;;16.13;13.10;;;;;;;;;;6217104;23;20060;-86
2022/04/06 21:14:31;;;;;;;17.38;13.00;;;;;;;;;;6216904;23;20008;-87
2022/04/06 21:16:57;;;;;;;19.70;14.25;;;;;;;;;;6190493;23;20332;-86
2022/04/06 21:19:23;;;;;;;14.13;11.38;;;;;;;;;;6190383;23;19997;-85
2022/04/06 21:21:49;;;;;;;18.42;13.25;;;;;;;;;;6215981;23;20446;-84
2022/04/06 21:24:16;;;;;;;17.38;13.23;;;;;;;;;;6216691;23;20076;-85
2022/04/06 21:26:41;;;;;;;18.55;12.88;;;;;;;;;;6217222;23;20013;-85
2022/04/06 21:29:09;;;;;;;14.88;12.75;;;;;;;;;;6217151;23;20464;-86
2022/04/06 21:31:34;;;;;;;18.58;13.20;;;;;;;;;;6216799;23;20442;-86
2022/04/06 21:34:01;;;;;;;16.95;12.27;;;;;;;;;;6216462;23;19997;-87
2022/04/06 21:36:27;;;;;;;15.18;12.48;;;;;;;;;;6189924;23;20021;-88
2022/04/06 21:38:53;;;;;;;15.13;11.90;;;;;;;;;;6217334;23;20047;-86
2022/04/06 21:41:18;;;;;;;16.35;11.82;;;;;;;;;;6217150;23;20038;-87
2022/04/06 21:43:43;;;;;;;15.45;10.80;;;;;;;;;;6216716;23;20380;-87
2022/04/06 21:46:09;;;;;;;17.10;11.68;;;;;;;;;;6189833;23;20085;-87
2022/04/06 21:48:35;;;;;;;17.33;11.18;;;;;;;;;;6216637;23;20040;-87
2022/04/06 21:51:00;;;;;;;15.30;11.93;;;;;;;;;;6216778;23;20428;-88
2022/04/06 21:53:26;;;;;;;13.63;10.88;;;;;;;;;;6190191;23;20005;-88
2022/04/06 21:55:52;;;;;;;16.63;10.85;;;;;;;;;;6190073;23;20005;-86
